createdAt,value
2023-01-26T00:00:32.979Z,-0.1
2023-01-26T00:02:34.462Z,-0.1
2023-01-26T00:04:35.887Z,-0.1
2023-01-26T00:06:37.370Z,0.1
2023-01-26T00:08:38.848Z,-0.1
2023-01-26T00:10:43.531Z,0.1
2023-01-26T00:12:45.021Z,0
2023-01-26T00:14:46.578Z,0
2023-01-26T00:16:47.966Z,0.1
2023-01-26T00:18:49.423Z,-0.1
2023-01-26T00:22:52.361Z,0.1
2023-01-26T00:26:58.512Z,0.1
2023-01-26T00:28:59.991Z,-0.1
2023-01-26T00:30:02.341Z,0.1
2023-01-26T00:32:03.810Z,0.1
2023-01-26T00:42:14.404Z,0
2023-01-26T00:44:15.871Z,0.1
2023-01-26T00:46:17.370Z,-0.1
2023-01-26T00:54:26.437Z,0
2023-01-26T00:56:28.027Z,0
2023-01-26T01:02:32.323Z,0
2023-01-26T01:04:33.791Z,-0.1
2023-01-26T01:06:38.513Z,-0.1
2023-01-26T01:08:39.982Z,0
2023-01-26T01:10:41.446Z,0
2023-01-26T01:12:42.911Z,-0.1
2023-01-26T01:14:44.359Z,0.1
2023-01-26T01:16:45.825Z,0
2023-01-26T01:18:47.325Z,0.2
2023-01-26T01:20:52.010Z,0.1
2023-01-26T01:22:53.462Z,0.1
2023-01-26T01:27:23.454Z,0.3
2023-01-26T01:29:24.957Z,0.3
2023-01-26T01:31:26.517Z,0.2
2023-01-26T01:33:31.092Z,0
2023-01-26T01:35:32.570Z,0.1
2023-01-26T01:37:34.035Z,0.1
2023-01-26T01:39:35.557Z,0.2
2023-01-26T01:41:36.986Z,0.1
2023-01-26T01:43:38.492Z,0.2
2023-01-26T01:45:39.960Z,0.1
2023-01-26T01:47:44.652Z,0.3
2023-01-26T01:49:46.137Z,0.2
2023-01-26T01:51:47.593Z,0.2
2023-01-26T01:53:49.083Z,0.1
2023-01-26T01:57:52.013Z,0.3
2023-01-26T02:01:58.277Z,0.1
2023-01-26T02:06:01.148Z,0.3
2023-01-26T02:08:02.617Z,0.1
2023-01-26T02:10:04.113Z,0.2
2023-01-26T02:12:05.575Z,0.2
2023-01-26T02:14:07.033Z,0.2
2023-01-26T02:16:11.823Z,0.3
2023-01-26T02:18:13.275Z,0.4
2023-01-26T02:20:14.727Z,0.4
2023-01-26T02:21:17.070Z,0.3
2023-01-26T02:23:18.540Z,0.3
2023-01-26T02:25:20.009Z,0.4
2023-01-26T02:27:21.492Z,0.3
2023-01-26T02:29:26.228Z,0.2
2023-01-26T02:31:27.747Z,0.3
2023-01-26T02:33:29.167Z,0.4
2023-01-26T02:35:30.655Z,0.3
2023-01-26T02:37:32.121Z,0.5
2023-01-26T02:39:33.695Z,0.2
2023-01-26T02:43:39.823Z,0.5
2023-01-26T02:45:41.337Z,0.4
2023-01-26T02:47:42.775Z,0.5
2023-01-26T02:49:44.277Z,0.4
2023-01-26T02:53:47.276Z,0.3
2023-01-26T03:01:56.443Z,0.6
2023-01-26T03:03:57.849Z,0.3
2023-01-26T03:05:59.347Z,0.5
2023-01-26T03:08:00.828Z,0.4
2023-01-26T03:12:07.039Z,0.4
2023-01-26T03:14:08.519Z,0.5
2023-01-26T03:16:10.070Z,0.6
2023-01-26T03:17:12.348Z,0.4
2023-01-26T03:19:13.815Z,0.5
2023-01-26T03:21:15.294Z,0.5
2023-01-26T03:23:16.783Z,0.5
2023-01-26T03:31:26.042Z,0.4
2023-01-26T03:33:27.450Z,0.5
2023-01-26T03:35:28.931Z,0.3
2023-01-26T03:37:30.402Z,0.6
2023-01-26T03:41:36.623Z,0.6
2023-01-26T03:43:38.101Z,0.5
2023-01-26T03:45:39.586Z,0.5
2023-01-26T03:59:54.737Z,0.6
2023-01-26T04:01:56.241Z,0.6
2023-01-26T04:03:57.684Z,0.7
2023-01-26T04:06:15.875Z,0.6
2023-01-26T04:08:03.909Z,0.6
2023-01-26T04:10:05.374Z,0.7
2023-01-26T04:12:06.890Z,0.4
2023-01-26T04:13:09.231Z,0.8
2023-01-26T04:15:10.717Z,0.7
2023-01-26T04:17:12.199Z,0.6
2023-01-26T04:19:13.685Z,0.7
2023-01-26T04:21:18.402Z,0.6
2023-01-26T04:23:19.900Z,0.6
2023-01-26T04:25:21.400Z,0.5
2023-01-26T04:29:24.346Z,0.8
2023-01-26T04:31:25.844Z,0.7
2023-01-26T04:33:27.292Z,0.7
2023-01-26T04:35:32.026Z,0.7
2023-01-26T04:37:33.505Z,0.6
2023-01-26T04:39:35.007Z,0.9
2023-01-26T04:41:36.492Z,0.9
2023-01-26T04:43:37.952Z,0.7
2023-01-26T04:45:39.459Z,0.8
2023-01-26T04:47:40.908Z,0.5
2023-01-26T04:49:45.650Z,0.8
2023-01-26T04:51:47.124Z,0.7
2023-01-26T04:53:48.607Z,0.8
2023-01-26T04:55:50.096Z,0.7
2023-01-26T04:57:51.582Z,0.8
2023-01-26T04:59:53.083Z,0.6
2023-01-26T05:01:54.550Z,0.8
2023-01-26T05:03:59.320Z,0.7
2023-01-26T05:06:00.790Z,0.6
2023-01-26T05:14:33.812Z,0.9
2023-01-26T05:16:38.572Z,0.9
2023-01-26T05:20:41.517Z,0.7
2023-01-26T05:24:44.514Z,0.9
2023-01-26T05:26:45.978Z,0.9
2023-01-26T05:28:47.524Z,1
2023-01-26T05:30:52.235Z,0.7
2023-01-26T05:36:56.706Z,0.9
2023-01-26T05:40:59.682Z,1
2023-01-26T05:45:05.906Z,1
2023-01-26T05:47:07.394Z,0.8
2023-01-26T05:49:08.890Z,0.7
2023-01-26T05:53:11.869Z,1
2023-01-26T05:55:13.392Z,0.9
2023-01-26T05:57:14.880Z,0.8
2023-01-26T05:59:19.631Z,1.1
2023-01-26T06:01:21.129Z,1
2023-01-26T06:03:22.619Z,1.1
2023-01-26T06:06:26.480Z,1.1
2023-01-26T06:18:38.755Z,1
2023-01-26T06:20:41.472Z,1.2
2023-01-26T06:32:52.517Z,1.3
2023-01-26T06:34:54.013Z,1.3
2023-01-26T06:36:55.536Z,1.2
2023-01-26T06:41:01.769Z,1
2023-01-26T06:47:06.300Z,1.4
2023-01-26T06:49:07.837Z,1.3
2023-01-26T06:51:09.355Z,1.4
2023-01-26T06:53:10.825Z,1.5
2023-01-26T06:55:15.585Z,1.4
2023-01-26T06:57:17.096Z,1.3
2023-01-26T06:59:18.633Z,1.5
2023-01-26T07:04:24.015Z,1.5
2023-01-26T07:10:31.794Z,1.6
2023-01-26T07:12:33.324Z,1.5
2023-01-26T07:14:34.844Z,1.5
2023-01-26T07:16:36.384Z,1.5
2023-01-26T07:18:37.874Z,1.5
2023-01-26T07:20:39.392Z,1.6
2023-01-26T07:22:44.199Z,1.6
2023-01-26T07:24:45.701Z,1.8
2023-01-26T07:26:47.232Z,1.8
2023-01-26T07:28:48.764Z,1.7
2023-01-26T07:30:50.345Z,1.6
2023-01-26T07:32:51.813Z,1.7
2023-01-26T07:34:53.326Z,1.7
2023-01-26T07:36:58.115Z,1.8
2023-01-26T07:38:59.626Z,1.8
2023-01-26T07:41:01.143Z,1.8
2023-01-26T07:43:02.684Z,1.8
2023-01-26T07:45:04.206Z,1.8
2023-01-26T07:47:05.729Z,1.8
2023-01-26T07:49:07.252Z,1.9
2023-01-26T07:51:12.036Z,1.9
2023-01-26T07:53:13.556Z,2
2023-01-26T07:55:15.140Z,1.9
2023-01-26T07:56:17.472Z,1.9
2023-01-26T08:02:22.085Z,2
2023-01-26T08:04:26.859Z,2.2
2023-01-26T08:06:28.418Z,2.2
2023-01-26T08:08:29.941Z,2.1
2023-01-26T08:10:31.496Z,2.1
2023-01-26T08:14:46.079Z,2.2
2023-01-26T08:16:36.154Z,2.3
2023-01-26T08:18:40.848Z,2.3
2023-01-26T08:20:42.387Z,2.2
2023-01-26T08:22:43.929Z,2.4
2023-01-26T08:24:45.463Z,2.3
2023-01-26T08:26:47.025Z,2.4
2023-01-26T08:28:49.638Z,2.3
2023-01-26T08:30:51.208Z,2.4
2023-01-26T08:32:55.955Z,2.4
2023-01-26T08:34:57.529Z,2.4
2023-01-26T08:39:00.599Z,2.4
2023-01-26T08:41:02.148Z,2.5
2023-01-26T08:43:03.688Z,2.4
2023-01-26T08:45:05.231Z,2.4
2023-01-26T08:47:10.037Z,2.6
2023-01-26T08:51:13.104Z,2.6
2023-01-26T08:53:41.776Z,2.7
2023-01-26T08:55:43.252Z,2.8
2023-01-26T08:57:44.791Z,2.8
2023-01-26T08:59:49.609Z,2.8
2023-01-26T09:01:51.356Z,2.9
2023-01-26T09:03:52.737Z,2.9
2023-01-26T09:05:54.288Z,3.1
2023-01-26T09:07:55.823Z,3
2023-01-26T09:09:57.420Z,3.2
2023-01-26T09:14:03.765Z,3.2
2023-01-26T09:18:06.903Z,3.4
2023-01-26T09:22:10.027Z,3.4
2023-01-26T09:24:11.633Z,3.5
2023-01-26T09:26:13.171Z,3.6
2023-01-26T09:28:17.949Z,3.7
2023-01-26T09:34:22.691Z,4.6
2023-01-26T09:36:24.263Z,5
2023-01-26T09:38:25.814Z,4.4
2023-01-26T09:42:32.216Z,4.3
2023-01-26T09:44:33.810Z,4.3
2023-01-26T09:46:37.116Z,4.6
2023-01-26T09:49:40.920Z,5.8
2023-01-26T09:51:42.479Z,6.7
2023-01-26T09:53:44.083Z,7.6
2023-01-26T09:55:48.913Z,7.4
2023-01-26T09:59:52.145Z,6.9
2023-01-26T10:01:53.714Z,7
2023-01-26T10:03:55.330Z,7.8
2023-01-26T10:05:56.967Z,8.4
2023-01-26T10:10:03.439Z,10.1
2023-01-26T10:12:05.073Z,10
2023-01-26T10:14:06.693Z,9.6
2023-01-26T10:16:08.413Z,10
2023-01-26T10:18:09.971Z,10.6
2023-01-26T10:22:13.290Z,10.9
2023-01-26T10:30:23.239Z,10.9
2023-01-26T10:32:24.855Z,11.3
2023-01-26T10:38:33.179Z,11.9
2023-01-26T10:40:34.889Z,12.4
2023-01-26T10:43:39.022Z,11.7
2023-01-26T10:45:40.940Z,11.4
2023-01-26T10:47:42.441Z,12.1
2023-01-26T10:49:44.161Z,12.6
2023-01-26T10:51:49.097Z,12.4
2023-01-26T10:53:50.813Z,12.7
2023-01-26T10:59:55.982Z,13.2
2023-01-26T11:01:57.781Z,14
2023-01-26T11:03:59.441Z,13.7
2023-01-26T11:06:04.538Z,13.8
2023-01-26T11:08:06.111Z,14
2023-01-26T11:10:07.853Z,13.9
2023-01-26T11:16:13.070Z,12.7
2023-01-26T11:18:14.790Z,12.4
2023-01-26T11:20:19.778Z,13
2023-01-26T11:24:23.369Z,13.5
2023-01-26T11:26:25.059Z,13.8
2023-01-26T11:28:26.815Z,13.4
2023-01-26T11:30:28.570Z,12.1
2023-01-26T11:32:30.324Z,12.9
2023-01-26T11:34:35.334Z,13.6
2023-01-26T11:36:37.133Z,13.9
2023-01-26T11:38:38.853Z,14.3
2023-01-26T11:39:41.338Z,12.8
2023-01-26T11:41:43.223Z,11.9
2023-01-26T11:43:44.896Z,10.2
2023-01-26T11:45:46.683Z,9.6
2023-01-26T11:47:51.664Z,9.5
2023-01-26T11:49:53.451Z,9.5
2023-01-26T11:51:55.322Z,9.2
2023-01-26T11:53:56.971Z,9.5
2023-01-26T11:55:58.684Z,9.3
2023-01-26T11:58:00.469Z,9
2023-01-26T12:00:02.249Z,9.6
2023-01-26T12:02:07.270Z,11.6
2023-01-26T12:04:09.014Z,12.2
2023-01-26T12:06:10.747Z,13.1
2023-01-26T12:08:12.517Z,13.7
2023-01-26T12:10:14.257Z,14.2
2023-01-26T12:12:16.025Z,13.5
2023-01-26T12:14:17.759Z,12.5
2023-01-26T12:16:22.782Z,11
2023-01-26T12:18:32.278Z,10.5
2023-01-26T12:20:26.294Z,10.3
2023-01-26T12:30:38.453Z,9.3
2023-01-26T12:34:41.871Z,9.4
2023-01-26T12:37:10.482Z,11
2023-01-26T12:39:12.216Z,11.5
2023-01-26T12:43:18.978Z,13.8
2023-01-26T12:45:20.736Z,14.4
2023-01-26T12:47:22.492Z,13.3
2023-01-26T12:49:24.301Z,11.3
2023-01-26T12:51:26.023Z,11.5
2023-01-26T12:53:27.786Z,13.7
2023-01-26T12:55:29.527Z,14.5
2023-01-26T12:57:34.571Z,12.9
2023-01-26T12:59:46.649Z,12.3
2023-01-26T13:01:38.089Z,11.5
2023-01-26T13:03:39.807Z,12
2023-01-26T13:11:50.104Z,10.1
2023-01-26T13:17:55.413Z,9.5
2023-01-26T13:19:57.178Z,9.4
2023-01-26T13:21:58.924Z,9.5
2023-01-26T13:24:00.736Z,9.3
2023-01-26T13:26:10.113Z,9.1
2023-01-26T13:28:07.432Z,9.1
2023-01-26T13:35:15.195Z,9.1
2023-01-26T13:37:16.962Z,9.2
2023-01-26T13:41:23.695Z,9.2
2023-01-26T13:43:27.457Z,9.2
2023-01-26T13:45:27.172Z,9.2
2023-01-26T13:47:28.937Z,9.1
2023-01-26T13:49:30.656Z,9.1
2023-01-26T13:51:32.406Z,9
2023-01-26T13:53:37.366Z,8.9
2023-01-26T13:55:39.105Z,8.9
2023-01-26T13:57:40.843Z,8.8
2023-01-26T13:59:42.593Z,8.8
2023-01-26T14:01:44.426Z,8.8
2023-01-26T14:03:46.059Z,8.8
2023-01-26T14:05:47.810Z,8.8
2023-01-26T14:07:52.763Z,8.9
2023-01-26T14:09:54.764Z,8.9
2023-01-26T14:11:56.273Z,8.8
2023-01-26T14:13:57.967Z,9
2023-01-26T14:15:59.830Z,8.9
2023-01-26T14:18:01.459Z,8.7
2023-01-26T14:20:03.183Z,8.8
2023-01-26T14:22:08.151Z,8.8
2023-01-26T14:24:09.993Z,8.8
2023-01-26T14:26:11.617Z,8.7
2023-01-26T14:27:14.084Z,8.6
2023-01-26T14:29:15.811Z,8.5
2023-01-26T14:31:17.596Z,8.6
2023-01-26T14:37:26.029Z,8.9
2023-01-26T14:39:27.731Z,9.2
2023-01-26T14:41:29.449Z,9
2023-01-26T14:43:31.207Z,8.8
2023-01-26T14:45:32.914Z,8.8
2023-01-26T14:49:39.624Z,8.6
2023-01-26T14:51:41.324Z,8.6
2023-01-26T14:53:43.070Z,8.6
2023-01-26T14:57:46.534Z,8.5
2023-01-26T15:01:50.060Z,8.4
2023-01-26T15:03:54.953Z,8.3
2023-01-26T15:05:56.711Z,8.4
2023-01-26T15:10:00.190Z,8.4
2023-01-26T15:12:01.903Z,8.4
2023-01-26T15:14:03.601Z,8.4
2023-01-26T15:16:05.354Z,8.2
2023-01-26T15:22:13.750Z,8.1
2023-01-26T15:23:16.226Z,8.2
2023-01-26T15:27:19.799Z,8.1
2023-01-26T15:33:28.927Z,8.1
2023-01-26T15:35:29.783Z,8.1
2023-01-26T15:37:33.064Z,7.9
2023-01-26T15:39:34.733Z,7.9
2023-01-26T15:41:36.427Z,8
2023-01-26T15:43:38.191Z,8.1
2023-01-26T15:45:43.139Z,7.9
2023-01-26T15:49:46.535Z,8
2023-01-26T15:51:48.230Z,7.9
2023-01-26T15:57:53.543Z,7.7
2023-01-26T15:59:59.080Z,7.8
2023-01-26T16:02:00.102Z,7.9
2023-01-26T16:04:01.748Z,7.9
2023-01-26T16:06:03.479Z,7.8
2023-01-26T16:08:05.183Z,7.8
2023-01-26T16:10:06.920Z,7.7
2023-01-26T16:12:08.903Z,7.8
2023-01-26T16:14:13.559Z,7.7
2023-01-26T16:16:15.311Z,7.7
2023-01-26T16:18:16.986Z,7.8
2023-01-26T16:20:45.618Z,7.7
2023-01-26T16:22:47.346Z,7.7
2023-01-26T16:24:48.996Z,7.7
2023-01-26T16:26:53.937Z,7.7
2023-01-26T16:28:55.844Z,7.6
2023-01-26T16:30:57.394Z,7.6
2023-01-26T16:32:59.075Z,7.6
2023-01-26T16:35:00.758Z,7.5
2023-01-26T16:37:02.469Z,7.5
2023-01-26T16:41:09.098Z,7.5
2023-01-26T16:43:10.777Z,7.5
2023-01-26T16:45:12.858Z,7.5
2023-01-26T16:47:14.194Z,7.6
2023-01-26T16:49:15.897Z,7.6
2023-01-26T16:53:19.328Z,7.5
2023-01-26T16:55:24.272Z,7.5
2023-01-26T16:57:25.978Z,7.5
2023-01-26T16:59:27.682Z,7.5
2023-01-26T17:03:31.131Z,7.4
2023-01-26T17:05:32.818Z,7.4
2023-01-26T17:07:34.531Z,7.5
2023-01-26T17:11:41.164Z,7.5
2023-01-26T17:13:42.875Z,7.5
2023-01-26T17:14:45.681Z,7.5
2023-01-26T17:16:47.343Z,7.5
2023-01-26T17:18:48.986Z,7.4
2023-01-26T17:20:50.692Z,7.3
2023-01-26T17:22:55.626Z,7.2
2023-01-26T17:24:57.337Z,7.3
2023-01-26T17:29:00.770Z,7.2
2023-01-26T17:31:02.506Z,7.3
2023-01-26T17:37:04.963Z,7.3
2023-01-26T17:39:06.678Z,7.3
2023-01-26T17:41:08.372Z,7.2
2023-01-26T17:43:10.078Z,7.3
2023-01-26T17:47:13.504Z,7.2
2023-01-26T17:49:15.197Z,7.2
2023-01-26T17:51:20.242Z,7.3
2023-01-26T17:55:23.535Z,7.3
2023-01-26T17:57:25.256Z,7.2
2023-01-26T17:59:26.955Z,7.2
2023-01-26T18:01:28.762Z,7.3
2023-01-26T18:05:35.272Z,7.3
2023-01-26T18:07:36.999Z,7.2
2023-01-26T18:12:42.858Z,7.2
2023-01-26T18:14:44.543Z,7.2
2023-01-26T18:16:46.425Z,7.2
2023-01-26T18:18:51.333Z,7.1
2023-01-26T18:20:52.904Z,7.1
2023-01-26T18:22:54.611Z,7.2
2023-01-26T18:24:56.301Z,7.2
2023-01-26T18:26:58.008Z,7.2
2023-01-26T18:28:59.720Z,7
2023-01-26T18:31:01.455Z,7.1
2023-01-26T18:33:06.338Z,7.1
2023-01-26T18:35:08.027Z,7
2023-01-26T18:37:09.744Z,7.1
2023-01-26T18:39:11.443Z,6.9
2023-01-26T18:41:13.146Z,6.9
2023-01-26T18:43:14.796Z,6.9
2023-01-26T18:45:16.477Z,6.9
2023-01-26T18:47:21.457Z,7
2023-01-26T18:49:23.109Z,6.9
2023-01-26T18:51:24.799Z,7
2023-01-26T18:53:26.499Z,7
2023-01-26T18:57:29.867Z,6.9
2023-01-26T19:01:36.555Z,6.8
2023-01-26T19:03:38.190Z,6.8
2023-01-26T19:08:44.010Z,6.8
2023-01-26T19:10:45.686Z,6.8
2023-01-26T19:12:47.393Z,6.9
2023-01-26T19:16:54.070Z,6.8
2023-01-26T19:18:55.734Z,6.7
2023-01-26T19:20:57.377Z,6.8
2023-01-26T19:25:00.734Z,6.8
2023-01-26T19:27:02.416Z,6.7
2023-01-26T19:29:07.333Z,6.7
2023-01-26T19:31:09.301Z,6.7
2023-01-26T19:33:10.741Z,6.6
2023-01-26T19:35:14.377Z,6.6
2023-01-26T19:37:14.063Z,6.7
2023-01-26T19:39:15.777Z,6.7
2023-01-26T19:41:17.583Z,6.7
2023-01-26T19:45:24.071Z,6.6
2023-01-26T19:47:25.719Z,6.7
2023-01-26T19:49:27.400Z,6.6
2023-01-26T19:57:37.387Z,6.6
2023-01-26T19:59:39.049Z,6.7
2023-01-26T20:01:40.814Z,6.5
2023-01-26T20:04:09.469Z,6.5
2023-01-26T20:06:11.059Z,6.6
2023-01-26T20:10:17.660Z,6.5
2023-01-26T20:12:19.358Z,6.5
2023-01-26T20:14:21.025Z,6.3
2023-01-26T20:16:22.766Z,6.5
2023-01-26T20:18:24.398Z,6.4
2023-01-26T20:20:26.069Z,6.2
2023-01-26T20:22:27.775Z,6.2
2023-01-26T20:24:32.731Z,6.1
2023-01-26T20:26:34.354Z,6.1
2023-01-26T20:28:36.031Z,6
2023-01-26T20:30:37.714Z,6
2023-01-26T20:32:39.381Z,6
2023-01-26T20:38:47.642Z,5.6
2023-01-26T20:40:49.311Z,5.6
2023-01-26T20:42:50.987Z,5.5
2023-01-26T20:46:54.307Z,5.5
2023-01-26T20:48:55.955Z,5.5
2023-01-26T20:50:57.600Z,5.3
2023-01-26T20:53:02.505Z,5.4
2023-01-26T20:55:04.124Z,5.4
2023-01-26T20:57:05.769Z,5.4
2023-01-26T20:58:08.205Z,5.5
2023-01-26T21:00:10.012Z,5.4
2023-01-26T21:02:11.525Z,5.4
2023-01-26T21:04:13.163Z,5.3
2023-01-26T21:08:19.671Z,5.4
2023-01-26T21:12:22.962Z,5.4
2023-01-26T21:14:24.590Z,5.3
2023-01-26T21:22:34.392Z,5.3
2023-01-26T21:24:36.035Z,5.2
2023-01-26T21:32:44.093Z,4.8
2023-01-26T21:40:53.877Z,4.7
2023-01-26T21:44:57.112Z,4.7
2023-01-26T21:46:58.763Z,4.7
2023-01-26T21:49:03.608Z,4.6
2023-01-26T21:51:05.223Z,4.6
2023-01-26T22:00:14.307Z,4.9
2023-01-26T22:08:23.864Z,4.9
2023-01-26T22:10:25.499Z,5
2023-01-26T22:16:33.652Z,5
2023-01-26T22:24:40.141Z,5
2023-01-26T22:28:43.345Z,5
2023-01-26T22:32:49.982Z,5.1
2023-01-26T22:34:51.512Z,5.1
2023-01-26T22:36:53.134Z,5
2023-01-26T22:38:54.770Z,5.2
2023-01-26T22:40:56.400Z,5.2
2023-01-26T22:42:58.040Z,5.2
2023-01-26T22:45:02.880Z,5.2
2023-01-26T22:47:04.534Z,5.1
2023-01-26T22:49:06.962Z,5
2023-01-26T22:50:09.587Z,5.1
2023-01-26T22:52:11.011Z,5
2023-01-26T22:54:12.647Z,5.1
2023-01-26T22:56:14.374Z,5
2023-01-26T22:58:19.171Z,5.1
2023-01-26T23:00:20.828Z,5.1
2023-01-26T23:02:22.446Z,5.1
2023-01-26T23:04:24.194Z,5.1
2023-01-26T23:06:25.741Z,5.1
2023-01-26T23:08:27.362Z,5.1
2023-01-26T23:10:28.999Z,5.1
2023-01-26T23:12:33.894Z,5.1
2023-01-26T23:14:35.526Z,5.1
2023-01-26T23:16:37.237Z,5
2023-01-26T23:18:38.832Z,5.1
2023-01-26T23:20:40.430Z,5.1
2023-01-26T23:22:42.084Z,5.1
2023-01-26T23:24:43.722Z,5
2023-01-26T23:26:48.560Z,5.1
2023-01-26T23:28:50.235Z,5
2023-01-26T23:30:51.925Z,5
2023-01-26T23:32:53.498Z,5
2023-01-26T23:34:55.137Z,5
2023-01-26T23:36:56.784Z,5.1
2023-01-26T23:38:58.415Z,5
2023-01-26T23:41:03.286Z,5
2023-01-26T23:43:16.080Z,4.9
2023-01-26T23:45:06.565Z,5
2023-01-26T23:47:35.297Z,4.9
2023-01-26T23:49:36.817Z,5
2023-01-26T23:51:38.449Z,4.8
2023-01-26T23:53:43.311Z,4.9
2023-01-26T23:55:44.966Z,5
2023-01-26T23:57:46.591Z,4.9
2023-01-26T23:59:48.238Z,5
